createdAt,value
2023-02-05T00:01:54.903Z,100863.56
2023-02-05T00:04:23.512Z,100863.61
2023-02-05T00:06:52.120Z,100864.18
2023-02-05T00:09:20.534Z,100863.40
2023-02-05T00:11:50.313Z,100863.98
2023-02-05T00:14:19.130Z,100863.80
2023-02-05T00:16:48.333Z,100863.84
2023-02-05T00:19:16.981Z,100862.72
2023-02-05T00:21:45.362Z,100868.33
2023-02-05T00:24:14.380Z,100867.13
2023-02-05T00:26:43.051Z,100870.28
2023-02-05T00:29:12.798Z,100868.31
2023-02-05T00:31:42.169Z,100864.90
2023-02-05T00:34:12.105Z,100863.08
2023-02-05T00:36:41.740Z,100862.95
2023-02-05T00:39:11.705Z,100864.82
2023-02-05T00:41:40.585Z,100865.53
2023-02-05T00:44:10.524Z,100867.28
2023-02-05T00:46:39.111Z,100871.75
2023-02-05T00:49:08.479Z,100871.27
2023-02-05T00:51:36.846Z,100868.35
2023-02-05T00:54:05.822Z,100869.52
2023-02-05T00:56:34.718Z,100872.23
2023-02-05T00:59:04.871Z,100879.14
2023-02-05T01:01:34.329Z,100874.62
2023-02-05T01:04:03.897Z,100874.84
2023-02-05T01:06:32.437Z,100875.07
2023-02-05T01:09:01.342Z,100879.06
2023-02-05T01:11:31.292Z,100879.14
2023-02-05T01:14:01.560Z,100878.09
2023-02-05T01:16:32.019Z,100879.80
2023-02-05T01:19:02.082Z,100882.13
2023-02-05T01:21:30.592Z,100885.60
2023-02-05T01:24:01.936Z,100888.71
2023-02-05T01:26:30.849Z,100888.27
2023-02-05T01:29:00.932Z,100891.33
2023-02-05T01:31:30.018Z,100895.09
2023-02-05T01:33:58.729Z,100891.73
2023-02-05T01:36:27.719Z,100886.36
2023-02-05T01:38:56.221Z,100890.33
2023-02-05T01:41:24.811Z,100895.42
2023-02-05T01:44:13.250Z,100897.75
2023-02-05T01:46:43.497Z,100898.38
2023-02-05T01:49:27.194Z,100901.96
2023-02-05T01:51:55.880Z,100904.70
2023-02-05T01:54:26.226Z,100901.43
2023-02-05T01:56:57.921Z,100903.20
2023-02-05T01:59:31.326Z,100900.48
2023-02-05T02:02:01.172Z,100899.70
2023-02-05T02:04:35.268Z,100905.08
2023-02-05T02:07:04.064Z,100902.61
2023-02-05T02:09:34.214Z,100905.50
2023-02-05T02:12:08.447Z,100903.84
2023-02-05T02:14:37.798Z,100907.06
2023-02-05T02:17:06.571Z,100912.44
2023-02-05T02:19:41.309Z,100910.50
2023-02-05T02:22:18.968Z,100910.20
2023-02-05T02:25:10.753Z,100912.55
2023-02-05T02:27:49.819Z,100912.81
2023-02-05T02:30:52.612Z,100912.44
2023-02-05T02:33:32.537Z,100919.50
2023-02-05T02:36:19.397Z,100917.45
2023-02-05T02:39:07.796Z,100917.84
2023-02-05T02:41:54.785Z,100919.17
2023-02-05T02:44:57.406Z,100921.91
2023-02-05T02:47:29.258Z,100920.35
2023-02-05T02:50:02.448Z,100923.15
2023-02-05T02:52:39.512Z,100923.01
2023-02-05T02:55:11.400Z,100921.88
2023-02-05T02:57:44.032Z,100923.66
2023-02-05T03:00:14.625Z,100921.27
2023-02-05T03:02:44.245Z,100924.67
2023-02-05T03:05:17.365Z,100928.06
2023-02-05T03:07:51.013Z,100924.45
2023-02-05T03:10:36.912Z,100923.91
2023-02-05T03:13:11.227Z,100925.06
2023-02-05T03:15:43.480Z,100925.05
2023-02-05T03:18:12.689Z,100925.19
2023-02-05T03:20:54.691Z,100927.01
2023-02-05T03:23:23.410Z,100934.80
2023-02-05T03:25:52.551Z,100937.36
2023-02-05T03:28:25.725Z,100939.33
2023-02-05T03:31:04.415Z,100937.90
2023-02-05T03:33:52.562Z,100934.48
2023-02-05T03:36:35.120Z,100934.67
2023-02-05T03:39:33.361Z,100935.27
2023-02-05T03:42:26.824Z,100937.38
2023-02-05T03:45:09.971Z,100941.83
2023-02-05T03:47:59.130Z,100944.14
2023-02-05T03:50:52.569Z,100948.71
2023-02-05T03:53:44.972Z,100951.52
2023-02-05T03:56:40.246Z,100954.04
2023-02-05T03:59:09.169Z,100953.69
2023-02-05T04:01:38.453Z,100958.25
2023-02-05T04:04:07.324Z,100956.39
2023-02-05T04:06:36.455Z,100953.85
2023-02-05T04:09:05.180Z,100955.92
2023-02-05T04:11:36.369Z,100960.15
2023-02-05T04:14:08.918Z,100958.92
2023-02-05T04:16:37.957Z,100963.80
2023-02-05T04:19:06.713Z,100965.21
2023-02-05T04:21:36.684Z,100965.13
2023-02-05T04:24:07.652Z,100963.21
2023-02-05T04:26:40.378Z,100969.73
2023-02-05T04:29:09.845Z,100970.13
2023-02-05T04:31:43.321Z,100972.66
2023-02-05T04:34:12.414Z,100973.52
2023-02-05T04:36:41.472Z,100979.21
2023-02-05T04:39:09.883Z,100978.39
2023-02-05T04:41:40.063Z,100982.15
2023-02-05T04:44:10.547Z,100979.84
2023-02-05T04:46:41.704Z,100986.17
2023-02-05T04:51:53.411Z,100992.09
2023-02-05T04:54:22.858Z,100996.73
2023-02-05T04:56:51.560Z,100999.75
2023-02-05T04:59:21.650Z,100999.44
2023-02-05T05:01:50.211Z,101006.79
2023-02-05T05:04:19.723Z,101005.95
2023-02-05T05:06:48.572Z,101008.24
2023-02-05T05:09:24.343Z,101008.94
2023-02-05T05:11:55.197Z,101009.01
2023-02-05T05:14:24.355Z,101011.38
2023-02-05T05:16:55.954Z,101013.60
2023-02-05T05:19:26.046Z,101015.98
2023-02-05T05:21:56.570Z,101015.81
2023-02-05T05:24:24.948Z,101017.91
2023-02-05T05:26:53.406Z,101020.27
2023-02-05T05:29:21.865Z,101018.60
2023-02-05T05:31:53.928Z,101020.02
2023-02-05T05:34:22.958Z,101019.71
2023-02-05T05:36:53.555Z,101024.59
2023-02-05T05:39:40.942Z,101023.19
2023-02-05T05:42:29.275Z,101029.91
2023-02-05T05:44:58.723Z,101030.14
2023-02-05T05:47:26.995Z,101035.48
2023-02-05T05:49:55.755Z,101038.66
2023-02-05T05:52:26.312Z,101043.28
2023-02-05T05:54:55.740Z,101047.15
2023-02-05T05:57:24.517Z,101050.27
2023-02-05T05:59:52.996Z,101046.71
2023-02-05T06:03:04.393Z,101049.92
2023-02-05T06:05:34.724Z,101052.70
2023-02-05T06:08:05.484Z,101055.27
2023-02-05T06:10:34.339Z,101055.13
2023-02-05T06:13:03.244Z,101060.55
2023-02-05T06:15:32.027Z,101060.20
2023-02-05T06:18:01.358Z,101059.30
2023-02-05T06:20:30.158Z,101064.28
2023-02-05T06:22:58.415Z,101069.11
2023-02-05T06:25:27.486Z,101072.85
2023-02-05T06:27:56.357Z,101076.35
2023-02-05T06:30:24.867Z,101077.21
2023-02-05T06:32:54.547Z,101081.77
2023-02-05T06:35:23.524Z,101086.53
2023-02-05T06:37:52.520Z,101092.38
2023-02-05T06:40:22.742Z,101092.34
2023-02-05T06:42:52.955Z,101092.83
2023-02-05T06:45:24.076Z,101093.52
2023-02-05T06:47:56.886Z,101099.08
2023-02-05T06:50:25.888Z,101098.80
2023-02-05T06:52:54.634Z,101098.75
2023-02-05T06:55:23.529Z,101100.40
2023-02-05T06:57:52.276Z,101101.88
2023-02-05T07:00:20.856Z,101103.79
2023-02-05T07:02:49.651Z,101104.31
2023-02-05T07:05:18.293Z,101106.80
2023-02-05T07:07:48.485Z,101103.66
2023-02-05T07:10:19.121Z,101104.86
2023-02-05T07:12:48.040Z,101106.98
2023-02-05T07:15:17.485Z,101108.58
2023-02-05T07:17:45.953Z,101111.34
2023-02-05T07:20:16.924Z,101109.23
2023-02-05T07:22:47.473Z,101108.21
2023-02-05T07:25:15.936Z,101110.05
2023-02-05T07:27:44.763Z,101109.19
2023-02-05T07:30:13.928Z,101110.66
2023-02-05T07:32:43.169Z,101112.25
2023-02-05T07:35:11.571Z,101111.71
2023-02-05T07:37:40.658Z,101107.68
2023-02-05T07:40:13.002Z,101110.36
2023-02-05T07:42:42.494Z,101109.92
2023-02-05T07:45:11.057Z,101109.73
2023-02-05T07:47:40.088Z,101110.15
2023-02-05T07:50:08.953Z,101106.83
2023-02-05T07:52:38.192Z,101106.51
2023-02-05T07:55:07.762Z,101108.58
2023-02-05T07:57:36.785Z,101108.54
2023-02-05T08:00:07.789Z,101106.73
2023-02-05T08:02:40.525Z,101109.90
2023-02-05T08:05:09.319Z,101110.79
2023-02-05T08:07:38.696Z,101112.95
2023-02-05T08:10:10.442Z,101120.35
2023-02-05T08:12:43.007Z,101121.61
2023-02-05T08:15:12.620Z,101124.83
2023-02-05T08:17:42.756Z,101125.77
2023-02-05T18:12:56.350Z,101401.66
2023-02-05T18:15:25.740Z,101394.77
2023-02-05T18:17:54.536Z,101397.67
2023-02-05T18:20:23.244Z,101397.05
2023-02-05T18:22:52.262Z,101403.04
2023-02-05T18:25:20.810Z,101401.63
2023-02-05T18:27:50.573Z,101407.45
2023-02-05T18:30:24.118Z,101410.51
2023-02-05T18:32:53.581Z,101411.36
2023-02-05T18:35:24.419Z,101415.05
2023-02-05T18:37:56.231Z,101417.55
2023-02-05T18:40:25.697Z,101410.93
2023-02-05T18:42:55.651Z,101415.40
2023-02-05T18:45:24.617Z,101416.21
2023-02-05T18:47:53.268Z,101411.34
2023-02-05T18:50:22.334Z,101423.59
2023-02-05T18:52:51.561Z,101416.84
2023-02-05T18:55:20.426Z,101426.01
2023-02-05T18:57:52.240Z,101425.01
2023-02-05T19:00:21.101Z,101425.17
2023-02-05T19:02:49.637Z,101428.42
2023-02-05T19:05:19.854Z,101429.48
2023-02-05T19:07:50.051Z,101429.63
2023-02-05T19:10:19.017Z,101432.10
2023-02-05T19:12:49.206Z,101426.52
2023-02-05T19:15:18.318Z,101433.11
2023-02-05T19:17:46.860Z,101431.80
2023-02-05T19:20:15.553Z,101432.75
2023-02-05T19:22:44.696Z,101433.02
2023-02-05T19:25:14.001Z,101431.26
2023-02-05T19:27:42.727Z,101432.34
2023-02-05T19:30:14.375Z,101428.50
2023-02-05T19:32:42.884Z,101425.43
2023-02-05T19:35:11.940Z,101427.55
2023-02-05T19:37:41.470Z,101431.15
2023-02-05T19:40:12.780Z,101430.62
2023-02-05T19:42:43.023Z,101436.09
2023-02-05T19:45:11.820Z,101437.00
2023-02-05T19:47:40.845Z,101442.73
2023-02-05T19:50:09.829Z,101446.11
2023-02-05T19:52:39.016Z,101447.88
2023-02-05T19:55:07.712Z,101450.95
2023-02-05T19:57:36.885Z,101451.71
2023-02-05T20:00:07.473Z,101453.29
2023-02-05T20:02:42.091Z,101457.97
2023-02-05T20:05:11.142Z,101463.41
2023-02-05T20:07:41.095Z,101460.64
2023-02-05T20:10:10.062Z,101461.33
2023-02-05T20:12:41.122Z,101463.52
2023-02-05T20:15:10.245Z,101463.20
2023-02-05T20:17:40.344Z,101473.02
2023-02-05T20:20:28.194Z,101472.16
2023-02-05T20:23:01.249Z,101470.27
2023-02-05T20:25:30.102Z,101475.34
2023-02-05T20:28:01.418Z,101471.27
2023-02-05T20:30:48.664Z,101467.32
2023-02-05T20:33:18.657Z,101479.94
2023-02-05T20:35:48.600Z,101477.14
2023-02-05T20:38:19.062Z,101485.20
2023-02-05T20:40:47.528Z,101486.11
2023-02-05T20:43:16.104Z,101487.48
2023-02-05T20:45:44.974Z,101488.60
2023-02-05T20:48:13.969Z,101495.36
2023-02-05T20:50:43.172Z,101491.73
2023-02-05T20:53:12.693Z,101503.85
2023-02-05T20:55:41.439Z,101503.83
2023-02-05T20:58:10.519Z,101513.81
2023-02-05T21:00:40.124Z,101519.13
2023-02-05T21:03:08.704Z,101506.89
2023-02-05T21:05:37.578Z,101517.93
2023-02-05T21:08:09.329Z,101518.20
2023-02-05T21:10:38.073Z,101521.36
2023-02-05T21:13:09.060Z,101524.63
2023-02-05T21:15:37.694Z,101517.61
2023-02-05T21:18:06.417Z,101521.35
2023-02-05T21:20:35.924Z,101527.34
2023-02-05T21:23:04.900Z,101528.03
2023-02-05T21:25:36.073Z,101528.04
2023-02-05T21:28:05.291Z,101534.70
2023-02-05T21:30:35.751Z,101535.98
2023-02-05T21:33:06.953Z,101532.63
2023-02-05T21:35:39.145Z,101543.83
2023-02-05T21:38:07.640Z,101542.42
2023-02-05T21:40:37.360Z,101544.11
2023-02-05T21:43:05.777Z,101542.71
2023-02-05T21:45:36.819Z,101543.61
2023-02-05T21:48:05.772Z,101543.73
2023-02-05T21:50:36.848Z,101546.13
2023-02-05T21:53:09.307Z,101542.58
2023-02-05T21:55:37.760Z,101544.23
2023-02-05T21:58:06.483Z,101546.92
2023-02-05T22:00:35.136Z,101539.96
2023-02-05T22:03:03.775Z,101543.00
2023-02-05T22:05:34.476Z,101551.04
2023-02-05T22:08:05.922Z,101550.66
2023-02-05T22:10:35.824Z,101547.95
2023-02-05T22:13:05.792Z,101551.11
2023-02-05T22:15:34.568Z,101555.21
2023-02-05T22:18:06.688Z,101556.33
2023-02-05T22:20:36.420Z,101557.05
2023-02-05T22:23:04.875Z,101555.42
2023-02-05T22:25:36.377Z,101559.98
2023-02-05T22:28:07.027Z,101554.22
2023-02-05T22:30:36.241Z,101556.61
2023-02-05T22:33:06.873Z,101554.39
2023-02-05T22:35:35.719Z,101556.89
2023-02-05T22:38:05.592Z,101559.89
2023-02-05T22:40:34.849Z,101561.59
2023-02-05T22:43:03.912Z,101564.03
2023-02-05T22:45:32.942Z,101564.45
2023-02-05T22:48:01.477Z,101563.09
2023-02-05T22:50:31.332Z,101567.89
2023-02-05T22:52:59.834Z,101570.67
2023-02-05T22:55:28.308Z,101572.23
2023-02-05T22:57:56.729Z,101572.33
2023-02-05T23:00:25.468Z,101568.65
2023-02-05T23:02:53.967Z,101575.36
2023-02-05T23:05:25.091Z,101574.50
2023-02-05T23:07:54.440Z,101578.73
2023-02-05T23:10:26.871Z,101584.04
2023-02-05T23:12:56.227Z,101585.89
2023-02-05T23:15:27.413Z,101585.37
2023-02-05T23:17:56.077Z,101595.53
2023-02-05T23:20:24.884Z,101598.05
2023-02-05T23:23:04.745Z,101605.95
2023-02-05T23:25:36.899Z,101607.89
2023-02-05T23:28:05.987Z,101612.17
2023-02-05T23:30:34.580Z,101616.34
2023-02-05T23:33:06.679Z,101614.49
2023-02-05T23:35:35.883Z,101608.06
2023-02-05T23:38:04.693Z,101614.61
2023-02-05T23:40:36.065Z,101615.11
2023-02-05T23:43:04.975Z,101618.96
2023-02-05T23:45:35.014Z,101620.08
2023-02-05T23:48:04.033Z,101619.80
2023-02-05T23:50:34.768Z,101619.61
2023-02-05T23:53:03.928Z,101624.33
2023-02-05T23:55:32.464Z,101627.25
2023-02-05T23:58:01.137Z,101627.05
